sensor_id;sensor_type;location;lat;lon;timestamp;temperature;humidity
4052;DHT22;2040;50.924;11.604;2022-07-29T00:01:06;17.30;99.90
4052;DHT22;2040;50.924;11.604;2022-07-29T00:03:32;17.30;99.90
4052;DHT22;2040;50.924;11.604;2022-07-29T00:05:58;17.20;99.90
4052;DHT22;2040;50.924;11.604;2022-07-29T00:08:23;17.20;99.90
4052;DHT22;2040;50.924;11.604;2022-07-29T00:10:49;17.20;99.90
4052;DHT22;2040;50.924;11.604;2022-07-29T00:13:15;17.20;99.90
4052;DHT22;2040;50.924;11.604;2022-07-29T00:15:40;17.20;99.90
4052;DHT22;2040;50.924;11.604;2022-07-29T00:18:06;17.10;99.90
4052;DHT22;2040;50.924;11.604;2022-07-29T00:20:32;17.10;99.90
4052;DHT22;2040;50.924;11.604;2022-07-29T00:22:57;17.00;99.90
4052;DHT22;2040;50.924;11.604;2022-07-29T00:25:23;16.90;99.90
4052;DHT22;2040;50.924;11.604;2022-07-29T00:27:48;16.80;99.90
4052;DHT22;2040;50.924;11.604;2022-07-29T00:30:14;16.80;99.90
4052;DHT22;2040;50.924;11.604;2022-07-29T00:32:40;16.70;99.90
4052;DHT22;2040;50.924;11.604;2022-07-29T00:35:06;16.70;99.90
4052;DHT22;2040;50.924;11.604;2022-07-29T00:37:51;16.70;99.90
4052;DHT22;2040;50.924;11.604;2022-07-29T00:40:16;16.70;99.90
4052;DHT22;2040;50.924;11.604;2022-07-29T00:42:47;16.60;99.90
4052;DHT22;2040;50.924;11.604;2022-07-29T00:45:13;16.60;99.90
4052;DHT22;2040;50.924;11.604;2022-07-29T00:47:39;16.60;99.90
4052;DHT22;2040;50.924;11.604;2022-07-29T00:50:06;16.60;99.90
4052;DHT22;2040;50.924;11.604;2022-07-29T00:52:33;16.50;99.90
4052;DHT22;2040;50.924;11.604;2022-07-29T00:54:58;16.50;99.90
4052;DHT22;2040;50.924;11.604;2022-07-29T00:57:24;16.50;99.90
4052;DHT22;2040;50.924;11.604;2022-07-29T00:59:50;16.50;99.90
4052;DHT22;2040;50.924;11.604;2022-07-29T01:02:15;16.50;99.90
4052;DHT22;2040;50.924;11.604;2022-07-29T01:04:41;16.50;99.90
4052;DHT22;2040;50.924;11.604;2022-07-29T01:07:07;16.50;99.90
4052;DHT22;2040;50.924;11.604;2022-07-29T01:09:34;16.50;99.90
4052;DHT22;2040;50.924;11.604;2022-07-29T01:12:00;16.40;99.90
4052;DHT22;2040;50.924;11.604;2022-07-29T01:14:27;16.40;99.90
4052;DHT22;2040;50.924;11.604;2022-07-29T01:17:17;16.40;99.90
4052;DHT22;2040;50.924;11.604;2022-07-29T01:20:10;16.30;99.90
4052;DHT22;2040;50.924;11.604;2022-07-29T01:31:04;16.30;99.90
4052;DHT22;2040;50.924;11.604;2022-07-29T01:33:35;16.30;99.90
4052;DHT22;2040;50.924;11.604;2022-07-29T01:36:31;16.20;99.90
4052;DHT22;2040;50.924;11.604;2022-07-29T01:39:21;16.20;99.90
4052;DHT22;2040;50.924;11.604;2022-07-29T01:42:08;16.20;99.90
4052;DHT22;2040;50.924;11.604;2022-07-29T01:44:50;16.10;99.90
4052;DHT22;2040;50.924;11.604;2022-07-29T01:47:23;16.10;99.90
4052;DHT22;2040;50.924;11.604;2022-07-29T01:49:54;16.00;99.90
4052;DHT22;2040;50.924;11.604;2022-07-29T01:52:41;16.00;99.90
4052;DHT22;2040;50.924;11.604;2022-07-29T01:55:13;16.00;99.90
4052;DHT22;2040;50.924;11.604;2022-07-29T01:57:42;16.00;99.90
4052;DHT22;2040;50.924;11.604;2022-07-29T02:00:09;16.00;99.90
4052;DHT22;2040;50.924;11.604;2022-07-29T02:02:38;16.00;99.90
4052;DHT22;2040;50.924;11.604;2022-07-29T02:05:06;16.00;99.90
4052;DHT22;2040;50.924;11.604;2022-07-29T02:07:33;16.00;99.90
4052;DHT22;2040;50.924;11.604;2022-07-29T02:10:00;16.10;99.90
4052;DHT22;2040;50.924;11.604;2022-07-29T02:12:28;15.90;99.90
4052;DHT22;2040;50.924;11.604;2022-07-29T02:14:56;15.90;99.90
4052;DHT22;2040;50.924;11.604;2022-07-29T02:17:31;15.90;99.90
4052;DHT22;2040;50.924;11.604;2022-07-29T02:20:00;15.80;99.90
4052;DHT22;2040;50.924;11.604;2022-07-29T02:22:28;15.80;99.90
4052;DHT22;2040;50.924;11.604;2022-07-29T02:24:55;15.70;99.90
4052;DHT22;2040;50.924;11.604;2022-07-29T02:27:22;15.60;99.90
4052;DHT22;2040;50.924;11.604;2022-07-29T02:29:49;15.60;99.90
4052;DHT22;2040;50.924;11.604;2022-07-29T02:32:17;15.60;99.90
4052;DHT22;2040;50.924;11.604;2022-07-29T02:34:44;15.50;99.90
4052;DHT22;2040;50.924;11.604;2022-07-29T02:37:11;15.50;99.90
4052;DHT22;2040;50.924;11.604;2022-07-29T02:39:41;15.40;99.90
4052;DHT22;2040;50.924;11.604;2022-07-29T02:42:11;15.40;99.90
4052;DHT22;2040;50.924;11.604;2022-07-29T02:44:37;15.30;99.90
4052;DHT22;2040;50.924;11.604;2022-07-29T02:47:23;15.30;99.90
4052;DHT22;2040;50.924;11.604;2022-07-29T02:50:00;15.30;99.90
4052;DHT22;2040;50.924;11.604;2022-07-29T02:52:37;15.20;99.90
4052;DHT22;2040;50.924;11.604;2022-07-29T02:55:16;15.10;99.90
4052;DHT22;2040;50.924;11.604;2022-07-29T02:57:47;15.00;99.90
4052;DHT22;2040;50.924;11.604;2022-07-29T03:00:15;14.90;99.90
4052;DHT22;2040;50.924;11.604;2022-07-29T03:02:44;14.90;99.90
4052;DHT22;2040;50.924;11.604;2022-07-29T03:05:16;14.90;99.90
4052;DHT22;2040;50.924;11.604;2022-07-29T03:07:47;14.90;99.90
4052;DHT22;2040;50.924;11.604;2022-07-29T03:10:14;14.90;99.90
4052;DHT22;2040;50.924;11.604;2022-07-29T03:12:41;14.90;99.90
4052;DHT22;2040;50.924;11.604;2022-07-29T03:15:08;14.80;99.90
4052;DHT22;2040;50.924;11.604;2022-07-29T03:17:35;14.80;99.90
4052;DHT22;2040;50.924;11.604;2022-07-29T03:20:02;14.80;99.90
4052;DHT22;2040;50.924;11.604;2022-07-29T03:22:28;14.80;99.90
4052;DHT22;2040;50.924;11.604;2022-07-29T03:24:53;14.90;99.90
4052;DHT22;2040;50.924;11.604;2022-07-29T03:27:19;14.90;99.90
4052;DHT22;2040;50.924;11.604;2022-07-29T03:29:45;14.90;99.90
4052;DHT22;2040;50.924;11.604;2022-07-29T03:32:10;14.90;99.90
4052;DHT22;2040;50.924;11.604;2022-07-29T03:34:37;15.00;99.90
4052;DHT22;2040;50.924;11.604;2022-07-29T03:37:04;15.00;99.90
4052;DHT22;2040;50.924;11.604;2022-07-29T03:39:35;15.00;99.90
4052;DHT22;2040;50.924;11.604;2022-07-29T03:42:02;14.90;99.90
4052;DHT22;2040;50.924;11.604;2022-07-29T03:44:29;14.90;99.90
4052;DHT22;2040;50.924;11.604;2022-07-29T03:46:57;14.90;99.90
4052;DHT22;2040;50.924;11.604;2022-07-29T03:49:26;15.00;99.90
4052;DHT22;2040;50.924;11.604;2022-07-29T03:51:51;15.00;99.90
4052;DHT22;2040;50.924;11.604;2022-07-29T03:54:17;15.00;99.90
4052;DHT22;2040;50.924;11.604;2022-07-29T03:56:45;15.00;99.90
4052;DHT22;2040;50.924;11.604;2022-07-29T03:59:13;15.00;99.90
4052;DHT22;2040;50.924;11.604;2022-07-29T04:01:41;15.10;99.90
4052;DHT22;2040;50.924;11.604;2022-07-29T04:04:07;15.20;99.90
4052;DHT22;2040;50.924;11.604;2022-07-29T04:06:43;15.20;99.90
4052;DHT22;2040;50.924;11.604;2022-07-29T04:09:09;15.20;99.90
4052;DHT22;2040;50.924;11.604;2022-07-29T04:11:36;15.20;99.90
4052;DHT22;2040;50.924;11.604;2022-07-29T04:14:02;15.20;99.90
4052;DHT22;2040;50.924;11.604;2022-07-29T04:16:27;15.20;99.90
4052;DHT22;2040;50.924;11.604;2022-07-29T04:18:53;15.30;99.90
4052;DHT22;2040;50.924;11.604;2022-07-29T04:21:18;15.30;99.90
4052;DHT22;2040;50.924;11.604;2022-07-29T04:23:44;15.40;99.90
4052;DHT22;2040;50.924;11.604;2022-07-29T04:26:14;15.50;99.90
4052;DHT22;2040;50.924;11.604;2022-07-29T04:28:39;15.50;99.90
4052;DHT22;2040;50.924;11.604;2022-07-29T04:31:05;15.60;99.90
4052;DHT22;2040;50.924;11.604;2022-07-29T04:33:32;15.70;99.90
4052;DHT22;2040;50.924;11.604;2022-07-29T04:35:57;15.70;99.90
4052;DHT22;2040;50.924;11.604;2022-07-29T04:38:23;15.70;99.90
4052;DHT22;2040;50.924;11.604;2022-07-29T04:40:48;15.80;99.90
4052;DHT22;2040;50.924;11.604;2022-07-29T04:43:15;15.80;99.90
4052;DHT22;2040;50.924;11.604;2022-07-29T04:45:40;15.80;99.90
4052;DHT22;2040;50.924;11.604;2022-07-29T04:48:06;15.80;99.90
4052;DHT22;2040;50.924;11.604;2022-07-29T04:50:32;15.70;99.90
4052;DHT22;2040;50.924;11.604;2022-07-29T04:52:57;15.80;99.90
4052;DHT22;2040;50.924;11.604;2022-07-29T04:55:23;15.80;99.90
4052;DHT22;2040;50.924;11.604;2022-07-29T04:57:49;15.90;99.90
4052;DHT22;2040;50.924;11.604;2022-07-29T05:00:14;16.00;99.90
4052;DHT22;2040;50.924;11.604;2022-07-29T05:02:40;16.10;99.90
4052;DHT22;2040;50.924;11.604;2022-07-29T05:05:06;16.10;99.90
4052;DHT22;2040;50.924;11.604;2022-07-29T05:07:32;16.20;99.90
4052;DHT22;2040;50.924;11.604;2022-07-29T05:09:57;16.20;99.90
4052;DHT22;2040;50.924;11.604;2022-07-29T05:12:24;16.20;99.90
4052;DHT22;2040;50.924;11.604;2022-07-29T05:14:50;16.10;99.90
4052;DHT22;2040;50.924;11.604;2022-07-29T05:17:15;16.10;99.90
4052;DHT22;2040;50.924;11.604;2022-07-29T05:19:41;16.10;99.90
4052;DHT22;2040;50.924;11.604;2022-07-29T05:22:07;16.20;99.90
4052;DHT22;2040;50.924;11.604;2022-07-29T05:24:33;16.30;99.90
4052;DHT22;2040;50.924;11.604;2022-07-29T05:26:59;16.40;99.90
4052;DHT22;2040;50.924;11.604;2022-07-29T05:29:25;16.50;99.90
4052;DHT22;2040;50.924;11.604;2022-07-29T05:31:51;16.50;99.90
4052;DHT22;2040;50.924;11.604;2022-07-29T05:34:18;16.50;99.90
4052;DHT22;2040;50.924;11.604;2022-07-29T05:36:45;16.40;99.90
4052;DHT22;2040;50.924;11.604;2022-07-29T05:39:10;16.40;99.90
4052;DHT22;2040;50.924;11.604;2022-07-29T05:41:36;16.30;99.90
4052;DHT22;2040;50.924;11.604;2022-07-29T05:44:02;16.30;99.90
4052;DHT22;2040;50.924;11.604;2022-07-29T05:46:28;16.40;99.90
4052;DHT22;2040;50.924;11.604;2022-07-29T05:48:54;16.40;99.90
4052;DHT22;2040;50.924;11.604;2022-07-29T05:51:20;16.60;99.90
4052;DHT22;2040;50.924;11.604;2022-07-29T05:53:45;16.50;99.90
4052;DHT22;2040;50.924;11.604;2022-07-29T05:56:11;16.60;99.90
4052;DHT22;2040;50.924;11.604;2022-07-29T05:58:37;16.50;99.90
4052;DHT22;2040;50.924;11.604;2022-07-29T06:01:03;16.40;99.90
4052;DHT22;2040;50.924;11.604;2022-07-29T06:03:28;16.30;99.90
4052;DHT22;2040;50.924;11.604;2022-07-29T06:05:54;16.10;99.90
4052;DHT22;2040;50.924;11.604;2022-07-29T06:08:19;16.20;99.90
4052;DHT22;2040;50.924;11.604;2022-07-29T06:10:45;16.10;99.90
4052;DHT22;2040;50.924;11.604;2022-07-29T06:13:11;16.20;99.90
4052;DHT22;2040;50.924;11.604;2022-07-29T06:15:37;16.30;99.90
4052;DHT22;2040;50.924;11.604;2022-07-29T06:18:03;16.40;99.90
4052;DHT22;2040;50.924;11.604;2022-07-29T06:20:29;16.40;99.90
4052;DHT22;2040;50.924;11.604;2022-07-29T06:22:56;16.40;99.90
4052;DHT22;2040;50.924;11.604;2022-07-29T06:25:21;16.50;99.90
4052;DHT22;2040;50.924;11.604;2022-07-29T06:27:47;16.80;99.90
4052;DHT22;2040;50.924;11.604;2022-07-29T06:30:13;16.90;99.90
4052;DHT22;2040;50.924;11.604;2022-07-29T06:32:39;16.80;99.90
4052;DHT22;2040;50.924;11.604;2022-07-29T06:35:05;16.80;99.90
4052;DHT22;2040;50.924;11.604;2022-07-29T06:37:31;16.80;99.90
4052;DHT22;2040;50.924;11.604;2022-07-29T06:39:56;16.90;99.90
4052;DHT22;2040;50.924;11.604;2022-07-29T06:42:43;17.10;99.90
4052;DHT22;2040;50.924;11.604;2022-07-29T06:45:10;17.20;99.90
4052;DHT22;2040;50.924;11.604;2022-07-29T06:47:36;17.30;99.90
4052;DHT22;2040;50.924;11.604;2022-07-29T06:50:02;17.40;99.90
4052;DHT22;2040;50.924;11.604;2022-07-29T06:52:28;17.50;99.90
4052;DHT22;2040;50.924;11.604;2022-07-29T06:54:53;17.60;99.90
4052;DHT22;2040;50.924;11.604;2022-07-29T06:57:20;17.70;99.90
4052;DHT22;2040;50.924;11.604;2022-07-29T06:59:46;17.80;99.90
4052;DHT22;2040;50.924;11.604;2022-07-29T07:02:12;17.80;99.90
4052;DHT22;2040;50.924;11.604;2022-07-29T07:04:37;17.90;99.90
4052;DHT22;2040;50.924;11.604;2022-07-29T07:07:03;17.90;99.90
4052;DHT22;2040;50.924;11.604;2022-07-29T07:09:28;18.00;99.90
4052;DHT22;2040;50.924;11.604;2022-07-29T07:11:54;18.30;99.90
4052;DHT22;2040;50.924;11.604;2022-07-29T07:14:19;18.30;99.90
4052;DHT22;2040;50.924;11.604;2022-07-29T07:16:45;18.30;99.90
4052;DHT22;2040;50.924;11.604;2022-07-29T07:19:10;18.50;99.90
4052;DHT22;2040;50.924;11.604;2022-07-29T07:21:36;18.60;99.90
4052;DHT22;2040;50.924;11.604;2022-07-29T07:24:01;18.70;99.90
4052;DHT22;2040;50.924;11.604;2022-07-29T07:26:27;19.00;99.90
4052;DHT22;2040;50.924;11.604;2022-07-29T07:28:53;19.00;99.90
4052;DHT22;2040;50.924;11.604;2022-07-29T07:31:18;19.10;99.90
4052;DHT22;2040;50.924;11.604;2022-07-29T07:33:44;19.20;99.90
4052;DHT22;2040;50.924;11.604;2022-07-29T07:36:10;19.40;99.90
4052;DHT22;2040;50.924;11.604;2022-07-29T07:38:35;19.50;99.90
4052;DHT22;2040;50.924;11.604;2022-07-29T07:41:01;19.60;99.90
4052;DHT22;2040;50.924;11.604;2022-07-29T07:43:27;19.80;99.90
4052;DHT22;2040;50.924;11.604;2022-07-29T07:45:53;20.00;99.90
4052;DHT22;2040;50.924;11.604;2022-07-29T07:48:18;20.20;99.90
4052;DHT22;2040;50.924;11.604;2022-07-29T07:50:44;20.50;99.90
4052;DHT22;2040;50.924;11.604;2022-07-29T07:53:09;20.50;99.90
4052;DHT22;2040;50.924;11.604;2022-07-29T07:55:40;20.60;99.90
4052;DHT22;2040;50.924;11.604;2022-07-29T07:58:06;20.70;99.90
4052;DHT22;2040;50.924;11.604;2022-07-29T08:00:32;20.80;99.90
4052;DHT22;2040;50.924;11.604;2022-07-29T08:02:58;20.70;99.90
4052;DHT22;2040;50.924;11.604;2022-07-29T08:05:23;20.50;99.90
4052;DHT22;2040;50.924;11.604;2022-07-29T08:07:49;20.50;99.90
4052;DHT22;2040;50.924;11.604;2022-07-29T08:10:18;20.50;99.90
4052;DHT22;2040;50.924;11.604;2022-07-29T08:13:05;20.50;99.90
4052;DHT22;2040;50.924;11.604;2022-07-29T08:15:30;20.60;99.90
4052;DHT22;2040;50.924;11.604;2022-07-29T08:17:56;20.80;99.90
4052;DHT22;2040;50.924;11.604;2022-07-29T08:20:21;21.00;99.90
4052;DHT22;2040;50.924;11.604;2022-07-29T08:22:47;21.30;99.90
4052;DHT22;2040;50.924;11.604;2022-07-29T08:25:13;21.50;99.90
4052;DHT22;2040;50.924;11.604;2022-07-29T08:27:38;21.50;99.90
4052;DHT22;2040;50.924;11.604;2022-07-29T08:30:04;21.60;99.90
4052;DHT22;2040;50.924;11.604;2022-07-29T08:32:30;21.70;99.90
4052;DHT22;2040;50.924;11.604;2022-07-29T08:34:56;22.00;99.90
4052;DHT22;2040;50.924;11.604;2022-07-29T08:37:22;22.10;99.90
4052;DHT22;2040;50.924;11.604;2022-07-29T08:39:48;22.40;99.90
4052;DHT22;2040;50.924;11.604;2022-07-29T08:42:13;22.70;99.90
4052;DHT22;2040;50.924;11.604;2022-07-29T08:44:39;22.60;99.90
4052;DHT22;2040;50.924;11.604;2022-07-29T08:47:05;22.80;99.90
4052;DHT22;2040;50.924;11.604;2022-07-29T08:49:33;23.20;99.90
4052;DHT22;2040;50.924;11.604;2022-07-29T08:52:00;23.40;99.90
4052;DHT22;2040;50.924;11.604;2022-07-29T08:54:27;23.50;99.90
4052;DHT22;2040;50.924;11.604;2022-07-29T08:56:53;23.60;99.90
4052;DHT22;2040;50.924;11.604;2022-07-29T08:59:20;23.90;99.90
4052;DHT22;2040;50.924;11.604;2022-07-29T09:01:48;24.10;99.90
4052;DHT22;2040;50.924;11.604;2022-07-29T09:04:14;24.20;99.90
4052;DHT22;2040;50.924;11.604;2022-07-29T09:06:46;24.60;99.90
4052;DHT22;2040;50.924;11.604;2022-07-29T09:09:13;24.70;99.90
4052;DHT22;2040;50.924;11.604;2022-07-29T09:11:40;25.00;99.90
4052;DHT22;2040;50.924;11.604;2022-07-29T09:14:05;25.00;99.90
4052;DHT22;2040;50.924;11.604;2022-07-29T09:16:51;25.20;99.90
4052;DHT22;2040;50.924;11.604;2022-07-29T09:19:21;25.40;99.90
4052;DHT22;2040;50.924;11.604;2022-07-29T09:21:47;25.70;99.90
4052;DHT22;2040;50.924;11.604;2022-07-29T09:27:18;25.70;99.90
4052;DHT22;2040;50.924;11.604;2022-07-29T09:29:45;25.90;99.90
4052;DHT22;2040;50.924;11.604;2022-07-29T09:32:10;25.90;99.90
4052;DHT22;2040;50.924;11.604;2022-07-29T09:34:36;26.10;99.90
4052;DHT22;2040;50.924;11.604;2022-07-29T09:37:03;26.00;99.30
4052;DHT22;2040;50.924;11.604;2022-07-29T09:39:37;26.10;99.90
4052;DHT22;2040;50.924;11.604;2022-07-29T09:42:05;26.10;99.10
4052;DHT22;2040;50.924;11.604;2022-07-29T09:47:10;26.50;98.70
4052;DHT22;2040;50.924;11.604;2022-07-29T09:49:50;26.50;98.20
4052;DHT22;2040;50.924;11.604;2022-07-29T09:52:16;26.60;97.10
4052;DHT22;2040;50.924;11.604;2022-07-29T09:54:42;26.50;96.80
4052;DHT22;2040;50.924;11.604;2022-07-29T09:57:09;26.80;96.40
4052;DHT22;2040;50.924;11.604;2022-07-29T10:00:15;26.90;95.00
4052;DHT22;2040;50.924;11.604;2022-07-29T10:02:42;27.00;94.40
4052;DHT22;2040;50.924;11.604;2022-07-29T10:05:23;27.10;94.00
4052;DHT22;2040;50.924;11.604;2022-07-29T10:07:56;27.60;94.10
4052;DHT22;2040;50.924;11.604;2022-07-29T10:10:28;27.80;93.90
4052;DHT22;2040;50.924;11.604;2022-07-29T10:12:56;28.10;92.50
4052;DHT22;2040;50.924;11.604;2022-07-29T10:15:28;28.30;92.20
4052;DHT22;2040;50.924;11.604;2022-07-29T10:17:57;28.30;91.80
4052;DHT22;2040;50.924;11.604;2022-07-29T10:20:24;28.20;92.10
4052;DHT22;2040;50.924;11.604;2022-07-29T10:22:50;28.20;92.00
4052;DHT22;2040;50.924;11.604;2022-07-29T10:25:17;28.20;91.70
4052;DHT22;2040;50.924;11.604;2022-07-29T10:27:43;28.00;91.90
4052;DHT22;2040;50.924;11.604;2022-07-29T10:30:11;27.70;91.00
4052;DHT22;2040;50.924;11.604;2022-07-29T10:35:48;27.50;91.00
4052;DHT22;2040;50.924;11.604;2022-07-29T10:41:23;27.50;91.30
4052;DHT22;2040;50.924;11.604;2022-07-29T10:44:12;27.70;91.10
4052;DHT22;2040;50.924;11.604;2022-07-29T10:46:40;27.90;91.50
4052;DHT22;2040;50.924;11.604;2022-07-29T10:52:05;27.80;92.30
4052;DHT22;2040;50.924;11.604;2022-07-29T10:54:41;27.70;92.30
4052;DHT22;2040;50.924;11.604;2022-07-29T10:57:27;27.70;90.30
4052;DHT22;2040;50.924;11.604;2022-07-29T11:05:20;28.60;91.90
4052;DHT22;2040;50.924;11.604;2022-07-29T11:10:33;29.50;90.90
4052;DHT22;2040;50.924;11.604;2022-07-29T11:12:59;29.80;89.50
4052;DHT22;2040;50.924;11.604;2022-07-29T11:15:24;29.90;85.60
4052;DHT22;2040;50.924;11.604;2022-07-29T11:20:32;29.60;87.70
4052;DHT22;2040;50.924;11.604;2022-07-29T11:22:59;29.50;86.60
4052;DHT22;2040;50.924;11.604;2022-07-29T11:25:25;29.30;85.90
4052;DHT22;2040;50.924;11.604;2022-07-29T11:27:52;29.00;87.70
4052;DHT22;2040;50.924;11.604;2022-07-29T11:30:19;29.00;86.50
4052;DHT22;2040;50.924;11.604;2022-07-29T11:32:45;29.10;88.20
4052;DHT22;2040;50.924;11.604;2022-07-29T11:35:20;29.40;87.40
4052;DHT22;2040;50.924;11.604;2022-07-29T11:43:53;29.30;86.00
4052;DHT22;2040;50.924;11.604;2022-07-29T11:46:47;29.00;87.40
4052;DHT22;2040;50.924;11.604;2022-07-29T11:49:23;29.10;85.90
4052;DHT22;2040;50.924;11.604;2022-07-29T11:51:54;29.20;86.40
4052;DHT22;2040;50.924;11.604;2022-07-29T11:54:30;29.20;87.00
4052;DHT22;2040;50.924;11.604;2022-07-29T11:56:58;29.10;86.40
4052;DHT22;2040;50.924;11.604;2022-07-29T11:59:24;29.10;87.10
4052;DHT22;2040;50.924;11.604;2022-07-29T12:01:55;29.00;87.60
4052;DHT22;2040;50.924;11.604;2022-07-29T12:04:20;28.90;86.10
4052;DHT22;2040;50.924;11.604;2022-07-29T12:06:52;28.70;87.50
4052;DHT22;2040;50.924;11.604;2022-07-29T12:09:19;28.60;87.90
4052;DHT22;2040;50.924;11.604;2022-07-29T12:11:45;28.50;88.90
4052;DHT22;2040;50.924;11.604;2022-07-29T12:14:30;28.50;88.80
4052;DHT22;2040;50.924;11.604;2022-07-29T12:16:58;28.60;88.80
4052;DHT22;2040;50.924;11.604;2022-07-29T12:19:24;28.60;87.40
4052;DHT22;2040;50.924;11.604;2022-07-29T12:21:51;28.60;87.20
4052;DHT22;2040;50.924;11.604;2022-07-29T12:24:18;28.50;87.80
4052;DHT22;2040;50.924;11.604;2022-07-29T12:26:55;28.70;88.50
4052;DHT22;2040;50.924;11.604;2022-07-29T12:29:21;28.80;88.30
4052;DHT22;2040;50.924;11.604;2022-07-29T12:31:51;28.80;88.40
4052;DHT22;2040;50.924;11.604;2022-07-29T12:34:20;28.60;88.00
4052;DHT22;2040;50.924;11.604;2022-07-29T12:36:48;28.30;88.80
4052;DHT22;2040;50.924;11.604;2022-07-29T12:39:16;28.20;88.90
4052;DHT22;2040;50.924;11.604;2022-07-29T12:41:42;28.20;88.80
4052;DHT22;2040;50.924;11.604;2022-07-29T12:44:08;28.20;89.60
4052;DHT22;2040;50.924;11.604;2022-07-29T12:46:34;28.20;90.00
4052;DHT22;2040;50.924;11.604;2022-07-29T12:49:00;28.10;88.10
4052;DHT22;2040;50.924;11.604;2022-07-29T12:51:36;28.10;89.70
4052;DHT22;2040;50.924;11.604;2022-07-29T12:54:10;27.90;90.40
4052;DHT22;2040;50.924;11.604;2022-07-29T12:56:43;28.00;89.50
4052;DHT22;2040;50.924;11.604;2022-07-29T12:59:18;28.00;90.40
4052;DHT22;2040;50.924;11.604;2022-07-29T13:01:44;28.00;90.70
4052;DHT22;2040;50.924;11.604;2022-07-29T13:04:24;28.00;90.50
4052;DHT22;2040;50.924;11.604;2022-07-29T13:06:59;27.90;90.60
4052;DHT22;2040;50.924;11.604;2022-07-29T13:09:44;27.80;90.10
4052;DHT22;2040;50.924;11.604;2022-07-29T13:12:14;27.50;91.10
4052;DHT22;2040;50.924;11.604;2022-07-29T13:14:42;27.20;90.80
4052;DHT22;2040;50.924;11.604;2022-07-29T13:17:11;27.20;90.80
4052;DHT22;2040;50.924;11.604;2022-07-29T13:19:45;27.30;90.70
4052;DHT22;2040;50.924;11.604;2022-07-29T13:22:13;27.30;90.60
4052;DHT22;2040;50.924;11.604;2022-07-29T13:24:53;27.30;90.90
4052;DHT22;2040;50.924;11.604;2022-07-29T13:27:21;27.40;91.10
4052;DHT22;2040;50.924;11.604;2022-07-29T13:29:47;27.60;90.30
4052;DHT22;2040;50.924;11.604;2022-07-29T13:32:14;27.50;90.80
4052;DHT22;2040;50.924;11.604;2022-07-29T13:34:40;27.30;90.80
4052;DHT22;2040;50.924;11.604;2022-07-29T13:37:06;27.40;91.30
4052;DHT22;2040;50.924;11.604;2022-07-29T13:39:31;27.40;91.50
4052;DHT22;2040;50.924;11.604;2022-07-29T13:41:57;27.60;91.50
4052;DHT22;2040;50.924;11.604;2022-07-29T13:44:22;27.70;91.60
4052;DHT22;2040;50.924;11.604;2022-07-29T13:46:48;27.80;91.80
4052;DHT22;2040;50.924;11.604;2022-07-29T13:49:14;27.70;91.00
4052;DHT22;2040;50.924;11.604;2022-07-29T13:51:39;27.70;91.70
4052;DHT22;2040;50.924;11.604;2022-07-29T13:54:05;27.80;91.40
4052;DHT22;2040;50.924;11.604;2022-07-29T13:56:30;27.50;93.20
4052;DHT22;2040;50.924;11.604;2022-07-29T13:58:56;27.20;94.60
4052;DHT22;2040;50.924;11.604;2022-07-29T14:01:23;27.10;95.70
4052;DHT22;2040;50.924;11.604;2022-07-29T14:03:49;26.90;96.10
4052;DHT22;2040;50.924;11.604;2022-07-29T14:06:14;26.90;96.30
4052;DHT22;2040;50.924;11.604;2022-07-29T14:08:40;26.80;96.60
4052;DHT22;2040;50.924;11.604;2022-07-29T14:11:05;26.90;96.70
4052;DHT22;2040;50.924;11.604;2022-07-29T14:13:31;27.10;96.70
4052;DHT22;2040;50.924;11.604;2022-07-29T14:15:57;27.40;96.90
4052;DHT22;2040;50.924;11.604;2022-07-29T14:18:23;27.60;96.60
4052;DHT22;2040;50.924;11.604;2022-07-29T14:20:48;27.90;96.90
4052;DHT22;2040;50.924;11.604;2022-07-29T14:23:14;28.00;96.50
4052;DHT22;2040;50.924;11.604;2022-07-29T14:25:40;28.00;96.70
4052;DHT22;2040;50.924;11.604;2022-07-29T14:28:06;28.20;96.50
4052;DHT22;2040;50.924;11.604;2022-07-29T14:30:31;28.20;96.20
4052;DHT22;2040;50.924;11.604;2022-07-29T14:32:57;28.30;96.50
4052;DHT22;2040;50.924;11.604;2022-07-29T14:35:22;28.30;96.20
4052;DHT22;2040;50.924;11.604;2022-07-29T14:37:48;28.40;96.40
4052;DHT22;2040;50.924;11.604;2022-07-29T14:40:14;28.30;96.50
4052;DHT22;2040;50.924;11.604;2022-07-29T14:42:40;28.40;96.70
4052;DHT22;2040;50.924;11.604;2022-07-29T14:45:06;29.20;96.30
4052;DHT22;2040;50.924;11.604;2022-07-29T14:47:32;29.70;95.40
4052;DHT22;2040;50.924;11.604;2022-07-29T14:49:58;30.10;95.40
4052;DHT22;2040;50.924;11.604;2022-07-29T14:52:23;30.20;94.90
4052;DHT22;2040;50.924;11.604;2022-07-29T14:54:49;30.40;94.70
4052;DHT22;2040;50.924;11.604;2022-07-29T14:57:14;30.50;93.70
4052;DHT22;2040;50.924;11.604;2022-07-29T14:59:40;30.20;94.10
4052;DHT22;2040;50.924;11.604;2022-07-29T15:02:06;30.00;94.30
4052;DHT22;2040;50.924;11.604;2022-07-29T15:04:31;29.90;94.30
4052;DHT22;2040;50.924;11.604;2022-07-29T15:06:57;30.20;93.90
4052;DHT22;2040;50.924;11.604;2022-07-29T15:09:23;30.40;93.70
4052;DHT22;2040;50.924;11.604;2022-07-29T15:11:49;30.60;93.00
4052;DHT22;2040;50.924;11.604;2022-07-29T15:14:14;30.70;92.60
4052;DHT22;2040;50.924;11.604;2022-07-29T15:16:40;30.50;91.80
4052;DHT22;2040;50.924;11.604;2022-07-29T15:19:07;30.30;92.00
4052;DHT22;2040;50.924;11.604;2022-07-29T15:21:33;30.50;92.00
4052;DHT22;2040;50.924;11.604;2022-07-29T15:23:59;30.40;91.50
4052;DHT22;2040;50.924;11.604;2022-07-29T15:26:24;30.60;91.70
4052;DHT22;2040;50.924;11.604;2022-07-29T15:28:50;30.30;91.30
4052;DHT22;2040;50.924;11.604;2022-07-29T15:31:15;30.60;91.80
4052;DHT22;2040;50.924;11.604;2022-07-29T15:33:41;30.60;91.30
4052;DHT22;2040;50.924;11.604;2022-07-29T15:36:06;30.80;90.60
4052;DHT22;2040;50.924;11.604;2022-07-29T15:38:32;30.80;90.00
4052;DHT22;2040;50.924;11.604;2022-07-29T15:40:58;30.30;89.50
4052;DHT22;2040;50.924;11.604;2022-07-29T15:43:24;30.20;90.20
4052;DHT22;2040;50.924;11.604;2022-07-29T15:45:49;30.20;88.70
4052;DHT22;2040;50.924;11.604;2022-07-29T15:48:33;29.80;90.30
4052;DHT22;2040;50.924;11.604;2022-07-29T15:51:02;29.50;90.40
4052;DHT22;2040;50.924;11.604;2022-07-29T15:53:28;29.20;90.70
4052;DHT22;2040;50.924;11.604;2022-07-29T15:55:54;28.90;90.90
4052;DHT22;2040;50.924;11.604;2022-07-29T15:58:19;28.80;91.70
4052;DHT22;2040;50.924;11.604;2022-07-29T16:00:45;28.60;91.80
4052;DHT22;2040;50.924;11.604;2022-07-29T16:03:11;28.80;91.90
4052;DHT22;2040;50.924;11.604;2022-07-29T16:05:37;28.60;91.70
4052;DHT22;2040;50.924;11.604;2022-07-29T16:08:03;28.60;92.00
4052;DHT22;2040;50.924;11.604;2022-07-29T16:10:28;28.70;92.00
4052;DHT22;2040;50.924;11.604;2022-07-29T16:12:54;28.60;92.00
4052;DHT22;2040;50.924;11.604;2022-07-29T16:15:19;28.50;92.30
4052;DHT22;2040;50.924;11.604;2022-07-29T16:17:45;28.60;92.30
4052;DHT22;2040;50.924;11.604;2022-07-29T16:20:11;28.60;92.60
4052;DHT22;2040;50.924;11.604;2022-07-29T16:22:36;28.60;92.30
4052;DHT22;2040;50.924;11.604;2022-07-29T16:25:02;28.50;92.60
4052;DHT22;2040;50.924;11.604;2022-07-29T16:27:27;28.50;93.00
4052;DHT22;2040;50.924;11.604;2022-07-29T16:29:54;28.30;92.80